Pleasant Mound, Illinois
Current Conditions -  °F | °C
As of 2:55 AM on Sunday 23 Nov 2014 (Local Time) from KENL Reporting Station
Clear Clear  
Wind Chill: 52°   Ceiling: Unl
Heat Index: 52°   Visibility: 10mi
Dew Point: 40°   Wind: 12mph
Humidity: 63%   Direction: 160°SSE
Pressure: 29.85"   Gusts: NA
Location:  38.8666°N, 89.3202°W
Report Text: KENL 230855Z AUTO 16010KT 10SM CLR 11/04 A2985 RMK AO2 T01100042
Loading
Personal Weather Stations






























Interactive Weather Map New forecast layout! Learn more

10-Day Weather Forecast

Advertisements
Track Severe Weather on mobile